createdAt,value
2023-03-17T00:00:31.268Z,4.03
2023-03-17T00:03:06.722Z,3.50
2023-03-17T00:05:39.535Z,4.13
2023-03-17T00:08:14.071Z,3.87
2023-03-17T00:10:49.530Z,4.27
2023-03-17T00:13:23.965Z,4.30
2023-03-17T00:15:59.642Z,3.87
2023-03-17T00:18:35.511Z,4.93
2023-03-17T00:21:12.053Z,3.47
2023-03-17T00:23:47.031Z,3.90
2023-03-17T00:26:20.247Z,4.00
2023-03-17T00:28:53.029Z,4.23
2023-03-17T00:31:29.438Z,4.30
2023-03-17T00:34:03.617Z,3.87
2023-03-17T00:36:37.472Z,4.43
2023-03-17T00:44:18.524Z,4.43
2023-03-17T00:46:56.870Z,4.83
2023-03-17T00:49:31.270Z,4.57
2023-03-17T00:52:03.985Z,4.30
2023-03-17T00:54:36.703Z,4.50
2023-03-17T00:57:10.740Z,4.47
2023-03-17T00:59:43.681Z,3.93
2023-03-17T01:02:16.721Z,4.20
2023-03-17T01:04:59.825Z,4.23
2023-03-17T01:07:39.490Z,4.27
2023-03-17T01:10:15.890Z,4.60
2023-03-17T01:12:49.371Z,5.07
2023-03-17T01:15:23.316Z,4.40
2023-03-17T01:17:57.192Z,4.80
2023-03-17T01:20:32.774Z,4.60
2023-03-17T01:23:05.550Z,4.30
2023-03-17T01:25:39.205Z,5.20
2023-03-17T01:28:14.141Z,4.47
2023-03-17T01:30:50.014Z,4.63
2023-03-17T01:33:23.956Z,5.87
2023-03-17T01:35:58.601Z,5.17
2023-03-17T01:38:31.511Z,4.60
2023-03-17T01:41:04.438Z,5.00
2023-03-17T01:43:38.769Z,4.90
2023-03-17T01:46:21.973Z,4.87
2023-03-17T01:49:00.108Z,4.67
2023-03-17T01:51:37.756Z,4.83
2023-03-17T01:54:12.384Z,4.90
2023-03-17T01:56:50.087Z,4.73
2023-03-17T01:59:25.004Z,4.50
2023-03-17T02:02:06.105Z,4.67
2023-03-17T02:04:40.255Z,4.43
2023-03-17T02:07:27.052Z,5.20
2023-03-17T02:10:00.323Z,4.63
2023-03-17T02:12:37.670Z,4.50
2023-03-17T02:15:11.496Z,4.90
2023-03-17T02:17:44.403Z,5.23
2023-03-17T02:20:35.641Z,5.20
2023-03-17T02:23:12.356Z,5.10
2023-03-17T02:25:49.110Z,5.10
2023-03-17T02:35:32.881Z,4.80
2023-03-17T02:38:06.232Z,5.30
2023-03-17T02:40:40.708Z,5.00
2023-03-17T02:43:13.490Z,5.00
2023-03-17T02:45:46.379Z,5.37
2023-03-17T02:48:19.551Z,5.40
2023-03-17T02:50:54.571Z,5.80
2023-03-17T02:53:27.326Z,5.13
2023-03-17T02:56:02.150Z,5.27
2023-03-17T02:58:37.732Z,5.30
2023-03-17T03:01:10.677Z,5.27
2023-03-17T03:03:43.503Z,4.70
2023-03-17T03:06:16.371Z,5.40
2023-03-17T03:08:49.965Z,5.70
2023-03-17T03:11:25.701Z,4.63
2023-03-17T03:13:58.427Z,5.43
2023-03-17T03:16:31.276Z,4.77
2023-03-17T03:19:04.019Z,5.10
2023-03-17T03:21:37.229Z,4.33
2023-03-17T03:24:10.904Z,4.70
2023-03-17T03:26:45.171Z,5.43
2023-03-17T03:29:20.670Z,4.80
2023-03-17T03:31:53.542Z,5.80
2023-03-17T03:34:29.518Z,5.27
2023-03-17T03:37:02.478Z,5.20
2023-03-17T03:39:37.711Z,5.20
2023-03-17T03:42:12.202Z,5.37
2023-03-17T03:44:44.850Z,5.03
2023-03-17T03:47:17.605Z,5.23
2023-03-17T03:49:50.674Z,5.13
2023-03-17T03:52:23.463Z,5.20
2023-03-17T03:54:56.204Z,5.10
2023-03-17T03:57:31.771Z,5.23
2023-03-17T04:00:05.842Z,5.57
2023-03-17T04:02:38.668Z,4.70
2023-03-17T04:05:12.942Z,4.80
2023-03-17T04:07:46.600Z,5.27
2023-03-17T04:10:19.692Z,5.43
2023-03-17T04:12:54.033Z,5.87
2023-03-17T04:15:27.134Z,4.67
2023-03-17T04:18:00.968Z,4.70
2023-03-17T04:20:35.523Z,4.53
2023-03-17T04:23:08.637Z,5.23
2023-03-17T04:25:41.400Z,5.57
2023-03-17T04:28:15.623Z,5.40
2023-03-17T04:30:49.233Z,5.37
2023-03-17T04:33:22.474Z,5.17
2023-03-17T04:35:55.256Z,5.40
2023-03-17T04:38:28.180Z,5.07
2023-03-17T04:41:00.983Z,5.23
2023-03-17T04:43:35.378Z,5.23
2023-03-17T04:46:08.145Z,5.03
2023-03-17T04:48:41.395Z,4.27
2023-03-17T04:51:14.248Z,4.90
2023-03-17T04:53:47.596Z,5.30
2023-03-17T04:56:26.267Z,4.90
2023-03-17T04:59:00.498Z,4.90
2023-03-17T05:01:38.035Z,5.43
2023-03-17T05:04:16.723Z,5.07
2023-03-17T05:06:54.799Z,4.67
2023-03-17T05:09:28.742Z,4.43
2023-03-17T05:12:05.053Z,5.20
2023-03-17T05:14:39.638Z,4.73
2023-03-17T05:17:12.633Z,4.80
2023-03-17T05:19:45.458Z,4.03
2023-03-17T05:22:19.198Z,4.70
2023-03-17T05:24:54.469Z,5.47
2023-03-17T05:27:30.833Z,4.97
2023-03-17T05:30:05.396Z,5.37
2023-03-17T05:32:38.401Z,4.70
2023-03-17T05:35:11.296Z,4.67
2023-03-17T05:37:44.049Z,4.37
2023-03-17T05:40:17.342Z,5.03
2023-03-17T05:42:50.202Z,4.83
2023-03-17T05:45:24.304Z,4.87
2023-03-17T05:47:58.170Z,4.40
2023-03-17T05:50:31.121Z,4.53
2023-03-17T05:53:04.180Z,4.53
2023-03-17T05:55:36.973Z,4.63
2023-03-17T05:58:09.933Z,4.73
2023-03-17T06:00:44.763Z,4.17
2023-03-17T06:03:19.828Z,4.23
2023-03-17T06:05:53.165Z,4.83
2023-03-17T06:08:25.802Z,4.27
2023-03-17T06:10:58.681Z,4.47
2023-03-17T06:13:31.329Z,4.90
2023-03-17T06:16:08.888Z,5.17
2023-03-17T06:18:41.667Z,4.67
2023-03-17T06:21:17.064Z,4.30
2023-03-17T06:23:50.708Z,5.17
2023-03-17T06:26:23.599Z,4.43
2023-03-17T06:28:56.511Z,4.00
2023-03-17T06:31:31.211Z,4.90
2023-03-17T06:34:04.249Z,4.50
2023-03-17T06:36:39.252Z,4.10
2023-03-17T06:39:12.071Z,4.67
2023-03-17T06:41:45.182Z,3.97
2023-03-17T06:44:17.948Z,5.27
2023-03-17T06:46:52.747Z,4.27
2023-03-17T06:49:25.746Z,4.57
2023-03-17T06:51:58.526Z,4.23
2023-03-17T06:54:31.649Z,4.50
2023-03-17T06:57:04.641Z,4.40
2023-03-17T06:59:37.620Z,4.60
2023-03-17T07:02:12.929Z,4.20
2023-03-17T07:04:46.937Z,4.43
2023-03-17T07:07:20.780Z,4.20
2023-03-17T07:09:53.926Z,4.60
2023-03-17T07:12:27.210Z,4.53
2023-03-17T07:15:00.162Z,3.93
2023-03-17T07:17:34.588Z,4.60
2023-03-17T07:20:07.877Z,4.47
2023-03-17T07:22:40.595Z,4.57
2023-03-17T07:25:13.751Z,4.50
2023-03-17T07:27:46.806Z,4.77
2023-03-17T07:30:22.761Z,4.93
2023-03-17T07:32:58.236Z,5.00
2023-03-17T07:35:35.340Z,4.37
2023-03-17T07:38:09.891Z,4.73
2023-03-17T07:40:42.752Z,4.50
2023-03-17T07:43:16.030Z,4.37
2023-03-17T07:45:48.862Z,4.43
2023-03-17T07:48:23.094Z,4.20
2023-03-17T07:50:55.918Z,4.80
2023-03-17T07:53:29.870Z,4.40
2023-03-17T07:56:02.725Z,4.30
2023-03-17T07:58:35.852Z,5.13
2023-03-17T08:01:11.646Z,5.10
2023-03-17T08:03:48.583Z,4.33
2023-03-17T08:06:21.931Z,4.90
2023-03-17T08:08:55.565Z,5.07
2023-03-17T08:11:31.039Z,4.67
2023-03-17T08:14:03.938Z,5.10
2023-03-17T08:16:36.815Z,4.90
2023-03-17T08:19:11.167Z,4.63
2023-03-17T08:21:43.966Z,4.73
2023-03-17T08:24:16.857Z,4.40
2023-03-17T08:26:50.175Z,4.70
2023-03-17T08:29:23.818Z,4.53
2023-03-17T08:31:57.310Z,4.20
2023-03-17T08:34:31.582Z,4.67
2023-03-17T08:37:04.505Z,4.50
2023-03-17T08:39:37.463Z,4.30
2023-03-17T08:42:10.341Z,5.27
2023-03-17T08:44:44.171Z,4.23
2023-03-17T08:47:17.589Z,5.13
2023-03-17T08:49:51.842Z,4.23
2023-03-17T08:52:24.836Z,4.10
2023-03-17T08:54:57.748Z,4.83
2023-03-17T08:57:30.554Z,4.43
2023-03-17T09:00:09.634Z,4.80
2023-03-17T09:02:43.990Z,4.77
2023-03-17T09:05:19.465Z,4.80
2023-03-17T09:07:52.471Z,4.30
2023-03-17T09:10:25.524Z,4.53
2023-03-17T09:13:02.914Z,3.70
2023-03-17T09:15:36.697Z,4.13
2023-03-17T09:18:10.528Z,4.87
2023-03-17T09:20:44.790Z,4.63
2023-03-17T09:23:17.648Z,5.00
2023-03-17T09:25:50.681Z,4.90
2023-03-17T09:28:23.535Z,4.77
2023-03-17T09:31:06.349Z,5.07
2023-03-17T09:33:44.102Z,4.37
2023-03-17T09:36:18.328Z,5.20
2023-03-17T09:38:51.147Z,4.50
2023-03-17T09:41:32.105Z,4.53
2023-03-17T09:44:10.025Z,4.53
2023-03-17T09:46:47.554Z,5.77
2023-03-17T09:49:22.785Z,6.17
2023-03-17T09:51:56.975Z,6.00
2023-03-17T09:54:32.393Z,5.57
2023-03-17T09:57:07.724Z,5.17
2023-03-17T09:59:44.897Z,5.37
2023-03-17T10:02:30.281Z,4.80
2023-03-17T10:05:09.355Z,5.90
2023-03-17T10:07:46.636Z,4.43
2023-03-17T10:10:27.962Z,5.00
2023-03-17T10:13:05.564Z,4.70
2023-03-17T10:15:42.026Z,4.20
2023-03-17T10:18:16.684Z,4.60
2023-03-17T10:20:51.855Z,3.97
2023-03-17T10:23:28.783Z,4.30
2023-03-17T10:26:04.609Z,4.17
2023-03-17T10:28:38.948Z,4.27
2023-03-17T10:31:16.623Z,4.27
2023-03-17T10:33:52.245Z,4.50
2023-03-17T10:36:35.664Z,4.53
2023-03-17T10:39:18.838Z,3.97
2023-03-17T10:41:57.004Z,4.97
2023-03-17T10:44:36.846Z,4.40
2023-03-17T10:47:21.652Z,4.40
2023-03-17T10:49:59.176Z,4.20
2023-03-17T10:52:33.240Z,4.73
2023-03-17T10:55:08.357Z,4.07
2023-03-17T10:57:49.000Z,4.13
2023-03-17T11:00:23.159Z,4.90
2023-03-17T11:03:01.357Z,4.23
2023-03-17T11:05:34.208Z,4.33
2023-03-17T11:08:08.726Z,4.33
2023-03-17T11:10:43.165Z,4.20
2023-03-17T11:13:17.454Z,4.23
2023-03-17T11:15:54.452Z,4.13
2023-03-17T11:18:30.599Z,4.03
2023-03-17T11:21:08.142Z,3.90
2023-03-17T11:23:49.505Z,4.23
2023-03-17T11:26:40.597Z,3.83
2023-03-17T11:29:28.214Z,3.60
2023-03-17T11:32:07.532Z,3.97
2023-03-17T11:34:55.547Z,3.93
2023-03-17T11:37:40.562Z,4.07
2023-03-17T11:40:19.736Z,6.20
2023-03-17T11:43:06.645Z,4.17
2023-03-17T11:45:51.086Z,4.37
2023-03-17T11:48:35.008Z,4.27
2023-03-17T11:51:18.084Z,4.20
2023-03-17T11:54:05.973Z,4.40
2023-03-17T11:56:47.210Z,3.83
2023-03-17T11:59:34.010Z,4.00
2023-03-17T12:02:16.909Z,3.43
2023-03-17T12:04:59.497Z,3.97
2023-03-17T12:07:39.038Z,4.03
2023-03-17T12:10:30.460Z,3.60
2023-03-17T12:13:13.209Z,3.70
2023-03-17T12:15:54.690Z,3.53
2023-03-17T12:18:37.238Z,3.93
2023-03-17T12:21:15.471Z,3.77
2023-03-17T12:23:54.674Z,3.47
2023-03-17T12:26:51.258Z,3.53
2023-03-17T12:29:31.108Z,3.33
2023-03-17T12:32:12.081Z,3.97
2023-03-17T12:34:54.565Z,3.40
2023-03-17T12:37:37.408Z,3.63
2023-03-17T12:40:14.990Z,3.33
2023-03-17T12:42:55.085Z,3.40
2023-03-17T12:45:54.369Z,3.07
2023-03-17T12:48:49.846Z,3.13
2023-03-17T12:51:38.679Z,3.97
2023-03-17T12:54:24.536Z,3.77
2023-03-17T12:57:06.108Z,3.10
2023-03-17T12:59:44.232Z,3.07
2023-03-17T13:02:25.547Z,3.93
2023-03-17T13:05:02.179Z,3.40
2023-03-17T13:07:46.241Z,4.10
2023-03-17T13:10:53.445Z,3.30
2023-03-17T13:13:39.771Z,3.60
2023-03-17T13:16:28.646Z,2.90
2023-03-17T13:19:29.848Z,3.03
2023-03-17T13:22:22.318Z,3.00
2023-03-17T13:25:14.865Z,3.37
2023-03-17T13:27:54.179Z,3.07
2023-03-17T13:30:55.733Z,3.80
2023-03-17T13:33:33.812Z,3.27
2023-03-17T13:36:20.159Z,3.53
2023-03-17T13:39:22.376Z,3.30
2023-03-17T13:42:15.729Z,3.63
2023-03-17T13:45:05.671Z,6.10
2023-03-17T13:47:51.788Z,3.63
2023-03-17T13:50:25.792Z,3.30
2023-03-17T13:53:02.444Z,3.50
2023-03-17T13:55:41.026Z,4.00
2023-03-17T13:58:33.162Z,3.50
2023-03-17T14:01:09.012Z,3.63
2023-03-17T14:03:45.942Z,3.23
2023-03-17T14:06:19.908Z,3.03
2023-03-17T14:08:59.204Z,3.73
2023-03-17T14:11:34.106Z,3.47
2023-03-17T14:14:31.170Z,2.90
2023-03-17T14:17:10.688Z,4.13
2023-03-17T14:20:00.102Z,3.30
2023-03-17T14:22:33.896Z,3.57
2023-03-17T14:25:08.487Z,2.80
2023-03-17T14:27:41.582Z,3.00
2023-03-17T14:30:20.519Z,2.90
2023-03-17T14:32:59.706Z,3.30
2023-03-17T14:35:33.417Z,3.40
2023-03-17T14:38:16.801Z,3.00
2023-03-17T14:40:49.931Z,3.50
2023-03-17T14:43:23.134Z,3.20
2023-03-17T14:46:01.460Z,3.23
2023-03-17T14:48:35.213Z,3.03
2023-03-17T14:51:09.437Z,2.80
2023-03-17T14:53:46.668Z,4.70
2023-03-17T14:56:22.607Z,4.57
2023-03-17T14:58:56.166Z,3.70
2023-03-17T15:01:37.685Z,3.40
2023-03-17T15:04:13.678Z,3.00
2023-03-17T15:06:52.574Z,3.70
2023-03-17T15:09:27.535Z,2.83
2023-03-17T15:12:02.906Z,3.00
2023-03-17T15:14:36.854Z,3.50
2023-03-17T15:17:18.624Z,3.30
2023-03-17T15:19:56.114Z,3.23
2023-03-17T15:22:33.860Z,2.83
2023-03-17T15:25:17.882Z,3.10
2023-03-17T15:27:50.796Z,3.53
2023-03-17T15:30:23.780Z,3.20
2023-03-17T15:33:01.208Z,3.37
2023-03-17T15:35:34.187Z,3.73
2023-03-17T15:38:07.118Z,4.23
2023-03-17T15:40:40.197Z,4.03
2023-03-17T15:43:14.972Z,3.13
2023-03-17T15:45:56.859Z,3.47
2023-03-17T15:48:38.292Z,3.20
2023-03-17T15:51:12.001Z,10.47
2023-03-17T15:53:49.665Z,3.63
2023-03-17T15:56:24.207Z,3.60
2023-03-17T15:58:57.347Z,5.50
2023-03-17T16:01:31.639Z,5.83
2023-03-17T16:04:06.764Z,3.40
2023-03-17T16:06:39.668Z,4.93
2023-03-17T16:09:16.787Z,3.47
2023-03-17T16:11:52.261Z,3.33
2023-03-17T16:14:26.887Z,3.60
2023-03-17T16:16:59.891Z,3.60
2023-03-17T16:19:35.020Z,3.97
2023-03-17T16:22:13.423Z,3.63
2023-03-17T16:24:46.563Z,3.90
2023-03-17T16:27:19.425Z,3.47
2023-03-17T16:29:59.770Z,3.00
2023-03-17T16:32:33.021Z,3.53
2023-03-17T16:35:12.618Z,2.90
2023-03-17T16:37:46.117Z,3.40
2023-03-17T16:40:23.579Z,3.50
2023-03-17T16:42:57.017Z,3.40
2023-03-17T16:45:33.026Z,4.80
2023-03-17T16:48:14.134Z,5.20
2023-03-17T16:50:53.704Z,4.07
2023-03-17T16:53:26.938Z,5.13
2023-03-17T16:56:00.119Z,3.93
2023-03-17T16:58:36.933Z,3.57
2023-03-17T17:01:13.363Z,3.60
2023-03-17T17:03:46.305Z,3.47
2023-03-17T17:06:22.304Z,3.93
2023-03-17T17:08:55.130Z,4.60
2023-03-17T17:11:27.919Z,3.43
2023-03-17T17:14:00.994Z,3.87
2023-03-17T17:16:35.357Z,3.63
2023-03-17T17:19:14.353Z,4.00
2023-03-17T17:21:48.684Z,3.87
2023-03-17T17:24:21.803Z,3.50
2023-03-17T17:26:54.698Z,3.93
2023-03-17T17:29:29.670Z,3.87
2023-03-17T17:32:03.698Z,3.97
2023-03-17T17:34:36.729Z,4.00
2023-03-17T17:37:11.995Z,4.77
2023-03-17T17:39:44.856Z,3.80
2023-03-17T17:42:20.611Z,4.20
2023-03-17T17:44:53.704Z,5.20
2023-03-17T17:47:26.732Z,5.23
2023-03-17T17:50:00.109Z,4.60
2023-03-17T17:52:34.645Z,4.33
2023-03-17T17:55:07.782Z,4.60
2023-03-17T17:57:41.830Z,5.07
2023-03-17T18:00:16.796Z,4.27
2023-03-17T18:02:49.754Z,5.07
2023-03-17T18:05:22.559Z,4.47
2023-03-17T18:07:58.256Z,5.73
2023-03-17T18:10:31.883Z,7.50
2023-03-17T18:13:05.662Z,5.60
2023-03-17T18:15:41.677Z,4.87
2023-03-17T18:18:14.571Z,5.20
2023-03-17T18:20:47.403Z,5.03
2023-03-17T18:23:23.063Z,5.77
2023-03-17T18:25:59.766Z,5.83
2023-03-17T18:28:33.040Z,4.97
2023-03-17T18:31:07.328Z,5.27
2023-03-17T18:33:40.264Z,5.40
2023-03-17T18:36:13.356Z,5.20
2023-03-17T18:38:47.591Z,5.43
2023-03-17T18:41:20.648Z,4.87
2023-03-17T18:43:53.312Z,5.30
2023-03-17T18:46:26.119Z,5.10
2023-03-17T18:48:58.918Z,5.00
2023-03-17T18:51:31.692Z,4.90
2023-03-17T18:54:06.731Z,5.13
2023-03-17T18:56:39.658Z,4.70
2023-03-17T18:59:12.731Z,5.50
2023-03-17T19:01:45.578Z,4.77
2023-03-17T19:04:18.274Z,5.40
2023-03-17T19:06:51.703Z,5.17
2023-03-17T19:09:25.985Z,5.10
2023-03-17T19:11:58.732Z,5.60
2023-03-17T19:14:31.614Z,5.60
2023-03-17T19:17:04.608Z,5.73
2023-03-17T19:19:37.830Z,5.53
2023-03-17T19:22:11.313Z,5.50
2023-03-17T19:24:46.074Z,5.87
2023-03-17T19:27:19.114Z,5.40
2023-03-17T19:29:52.006Z,6.03
2023-03-17T19:32:24.936Z,5.37
2023-03-17T19:34:57.656Z,5.63
2023-03-17T19:37:32.187Z,5.87
2023-03-17T19:40:08.087Z,6.07
2023-03-17T19:42:44.066Z,6.77
2023-03-17T19:45:16.814Z,6.53
2023-03-17T19:47:49.568Z,6.17
2023-03-17T19:50:22.438Z,5.90
2023-03-17T19:52:55.314Z,6.00
2023-03-17T19:55:29.917Z,7.03
2023-03-17T19:58:04.529Z,6.03
2023-03-17T20:00:37.527Z,7.37
2023-03-17T20:03:10.242Z,9.47
2023-03-17T20:05:43.107Z,7.40
2023-03-17T20:08:19.200Z,8.30
2023-03-17T20:10:54.312Z,7.47
2023-03-17T20:13:27.472Z,6.57
2023-03-17T20:16:01.714Z,7.23
2023-03-17T20:18:34.762Z,7.43
2023-03-17T20:21:12.087Z,7.13
2023-03-17T20:23:45.198Z,6.47
2023-03-17T20:26:19.955Z,7.07
2023-03-17T20:28:56.857Z,6.83
2023-03-17T20:31:29.854Z,6.47
2023-03-17T20:34:02.938Z,7.23
2023-03-17T20:36:36.973Z,8.07
2023-03-17T20:39:14.726Z,6.87
2023-03-17T20:41:51.186Z,7.47
2023-03-17T20:44:24.405Z,7.00
2023-03-17T20:46:57.845Z,6.73
2023-03-17T20:49:33.368Z,7.07
2023-03-17T20:52:08.609Z,8.23
2023-03-17T20:54:41.492Z,7.97
2023-03-17T20:57:16.030Z,8.00
2023-03-17T20:59:49.201Z,8.87
2023-03-17T21:02:22.099Z,14.00
2023-03-17T21:04:54.844Z,8.63
2023-03-17T21:07:27.657Z,8.20
2023-03-17T21:10:02.127Z,8.90
2023-03-17T21:12:38.665Z,8.40
2023-03-17T21:15:13.119Z,8.20
2023-03-17T21:17:45.788Z,8.87
2023-03-17T21:20:19.503Z,9.43
2023-03-17T21:22:52.480Z,8.97
2023-03-17T21:25:25.421Z,8.30
2023-03-17T21:27:59.993Z,8.00
2023-03-17T21:30:34.011Z,7.53
2023-03-17T21:33:07.331Z,8.10
2023-03-17T21:35:40.216Z,8.37
2023-03-17T21:38:13.487Z,10.07
2023-03-17T21:40:47.448Z,7.80
2023-03-17T21:43:21.639Z,7.80
2023-03-17T21:45:54.512Z,6.97
2023-03-17T21:48:27.261Z,7.27
2023-03-17T21:51:00.106Z,8.20
2023-03-17T21:53:35.195Z,8.10
2023-03-17T21:56:11.980Z,6.97
2023-03-17T21:58:48.633Z,7.80
2023-03-17T22:01:23.979Z,7.77
2023-03-17T22:03:59.526Z,7.67
2023-03-17T22:06:32.319Z,8.73
2023-03-17T22:09:06.840Z,8.17
2023-03-17T22:11:39.683Z,7.53
2023-03-17T22:14:19.661Z,8.37
2023-03-17T22:16:53.341Z,7.70
2023-03-17T22:19:28.507Z,7.60
2023-03-17T22:22:03.476Z,7.80
2023-03-17T22:24:36.325Z,7.30
2023-03-17T22:27:09.863Z,8.17
2023-03-17T22:29:44.277Z,7.80
2023-03-17T22:32:22.153Z,7.83
2023-03-17T22:34:57.581Z,8.70
2023-03-17T22:37:30.480Z,8.03
2023-03-17T22:40:06.310Z,7.77
2023-03-17T22:42:39.150Z,7.53
2023-03-17T22:45:13.448Z,7.33
2023-03-17T22:47:46.212Z,7.07
2023-03-17T22:50:19.099Z,7.10
2023-03-17T22:52:51.939Z,7.13
2023-03-17T22:55:24.737Z,7.97
2023-03-17T22:58:00.040Z,7.13
2023-03-17T23:00:34.285Z,6.77
2023-03-17T23:03:07.497Z,6.80
2023-03-17T23:05:40.250Z,7.30
2023-03-17T23:08:12.766Z,7.33
2023-03-17T23:10:46.294Z,7.23
2023-03-17T23:13:20.087Z,7.27
2023-03-17T23:15:55.108Z,7.17
2023-03-17T23:18:28.753Z,6.83
2023-03-17T23:21:01.864Z,6.87
2023-03-17T23:23:35.347Z,7.00
2023-03-17T23:26:09.367Z,6.83
2023-03-17T23:28:44.286Z,6.90
2023-03-17T23:31:19.552Z,7.13
2023-03-17T23:33:53.976Z,6.77
2023-03-17T23:36:27.451Z,6.33
2023-03-17T23:39:00.690Z,6.63
2023-03-17T23:41:33.666Z,6.80
2023-03-17T23:44:06.808Z,6.50
2023-03-17T23:46:41.254Z,6.43
2023-03-17T23:49:14.081Z,6.43
2023-03-17T23:51:50.390Z,6.07
2023-03-17T23:54:24.040Z,6.70
2023-03-17T23:56:57.414Z,5.93
2023-03-17T23:59:30.278Z,6.40
